Home > Products > Valid Products > TAF

000
FTUS45 KABQ 311100
TAFTCC
TAF
KTCC 311126Z 3112/0112 02008KT P6SM FEW250
     FM311500 07010KT P6SM SCT250
     FM311800 17010KT P6SM SCT250
     FM010000 20011KT P6SM SCT200=



000
FTUS45 KABQ 311100
TAFLVS
TAF
KLVS 311126Z 3112/0112 15005KT P6SM SCT250
     FM311700 19015G25KT P6SM SCT200
     FM010000 19011KT P6SM SCT150
     FM010900 20010KT P6SM SCT040 SCT090=



000
FTUS45 KABQ 311100
TAFROW
TAF
KROW 311126Z 3112/0112 VRB05KT P6SM SCT250
     FM311600 15010KT P6SM SCT250
     FM010000 18010KT P6SM SCT200=



000
FTUS45 KABQ 311100
TAFSAF
TAF
KSAF 311126Z 3112/0112 15010KT P6SM SCT250
     FM311600 15014G21KT P6SM SCT200
     FM312200 17011KT P6SM SCT150
     FM010200 13010KT P6SM SCT050 SCT150
     FM010800 VRB05KT P6SM SCT040 BKN080=



000
FTUS45 KABQ 311100
TAFABQ
TAF
KABQ 311126Z 3112/0112 09015KT P6SM SCT250
     FM311700 14010KT P6SM SCT200
     FM312100 17011KT P6SM SCT150
     FM010100 12010KT P6SM SCT060 SCT150
     FM010600 09007KT P6SM SCT060 BKN100=



000
FTUS45 KABQ 311100
TAFFMN
TAF
KFMN 311126Z 3112/0112 10010KT P6SM SCT250
     FM311800 13013KT P6SM BKN200
     FM010000 10010KT P6SM SCT150
     FM010300 09013KT P6SM VCSH SCT060 BKN120
     FM010900 09011KT P6SM SCT050 BKN090=



000
FTUS45 KABQ 311100
TAFGUP
TAF
KGUP 311126Z 3112/0112 VRB05KT P6SM SCT250
     FM311500 18011KT P6SM SCT150
     FM312000 19013G22KT P6SM SCT150
     FM312300 18011KT P6SM VCSH SCT050 SCT150
     FM010400 17007KT P6SM SCT050=



000
FTUS45 KABQ 310500
TAFROW
TAF
KROW 310536Z 3106/0106 02008KT P6SM SCT250
     FM311500 15010KT P6SM SCT250
     FM010000 18010KT P6SM SCT200=



000
FTUS45 KABQ 310500
TAFSAF
TAF
KSAF 310536Z 3106/0106 11013KT P6SM SCT250
     FM311600 15015KT P6SM SCT200
     FM312200 14010KT P6SM SCT150
     FM010200 11010KT P6SM SCT050 SCT150=



000
FTUS45 KABQ 310500
TAFGUP
TAF
KGUP 310536Z 3106/0106 12005KT P6SM SCT250
     FM311700 16013KT P6SM SCT150
     FM312000 19015KT P6SM SCT150
     FM312300 17011KT P6SM VCSH SCT050 SCT150=



000
FTUS45 KABQ 310500
TAFABQ
TAF
KABQ 310536Z 3106/0106 08015KT P6SM SCT250
     FM311700 14010KT P6SM SCT200
     FM312100 18011KT P6SM SCT150
     FM010100 12010KT P6SM SCT060 SCT150=



000
FTUS45 KABQ 310500
TAFTCC
TAF
KTCC 310536Z 3106/0106 08007KT P6SM FEW250
     FM311500 17011KT P6SM SCT250
     FM010000 20011KT P6SM SCT200=



000
FTUS45 KABQ 310500
TAFFMN
TAF
KFMN 310536Z 3106/0106 09010KT P6SM SCT250
     FM311800 13013KT P6SM SCT200
     FM010000 10010KT P6SM SCT150
     FM010300 09013KT P6SM VCSH SCT060 SCT150=



000
FTUS45 KABQ 310500
TAFLVS
TAF
KLVS 310536Z 3106/0106 15005KT P6SM SCT250
     FM311700 19013KT P6SM SCT200
     FM312000 19017G25KT P6SM SCT200
     FM010000 19011KT P6SM SCT150=



000
FTUS45 KABQ 302300
TAFABQ
TAF
KABQ 302330Z 3100/3124 10010KT P6SM SKC
      TEMPO 3103/3107 09013G22KT
     FM311000 08011KT P6SM SCT250
     FM311900 13010KT P6SM SCT200
     FM312200 18010KT P6SM SCT060 SCT200=



000
FTUS45 KABQ 302300
TAFLVS
TAF
KLVS 302330Z 3100/3124 16010KT P6SM SKC
     FM311600 19013KT P6SM SCT250=



000
FTUS45 KABQ 302300
TAFROW
TAF
KROW 302330Z 3100/3124 02008KT P6SM SKC
     FM311400 15008KT P6SM SCT250=



000
FTUS45 KABQ 302300
TAFSAF
TAF
KSAF 302330Z 3100/3124 15013KT P6SM SKC
     FM310800 12010KT P6SM SCT250
     FM311600 15013KT P6SM SCT250=



000
FTUS45 KABQ 302300
TAFTCC
TAF
KTCC 302330Z 3100/3124 07005KT P6SM SKC
     FM311600 17011KT P6SM SCT250=



000
FTUS45 KABQ 302300
TAFFMN
TAF
KFMN 302330Z 3100/3124 08008KT P6SM SCT250
     FM311900 12008KT P6SM SCT200=



000
FTUS45 KABQ 302300
TAFGUP
TAF
KGUP 302330Z 3100/3124 VRB03KT P6SM SCT250
     FM311800 19011KT P6SM SCT150
     FM312100 21011KT P6SM SCT050 SCT150=



000
FTUS45 KABQ 302100 AAA
TAFSAF
TAF AMD
KSAF 302114Z 3021/3118 16013KT P6SM SKC
     FM310700 12012KT P6SM FEW250=



000
FTUS45 KABQ 301900 AAA
TAFTCC
TAF AMD
KTCC 301958Z 3020/3118 06012G20KT P6SM SKC
     FM302300 07011KT P6SM SKC
     FM310600 04006KT P6SM SKC=



000
FTUS45 KABQ 301700
TAFGUP
TAF
KGUP 301721Z 3018/3118 10005KT P6SM SKC
     FM310600 09009KT P6SM SCT250=



000
FTUS45 KABQ 301700
TAFFMN
TAF
KFMN 301721Z 3018/3118 09007KT P6SM SKC
     FM302000 26008KT P6SM SKC
     FM310600 09009KT P6SM SCT250=



000
FTUS45 KABQ 301700
TAFLVS
TAF
KLVS 301721Z 3018/3118 11010KT P6SM SKC
     FM302100 16010KT P6SM SKC
     FM310600 17008KT P6SM SCT250=



000
FTUS45 KABQ 301700
TAFROW
TAF
KROW 301721Z 3018/3118 36012KT P6SM SKC
      TEMPO 3018/3022 01014G22KT
     FM302300 03008KT P6SM SKC
     FM310400 01006KT P6SM FEW250=



000
FTUS45 KABQ 301700
TAFTCC
TAF
KTCC 301721Z 3018/3118 04014G25KT P6SM SKC
     FM302100 07011KT P6SM SKC
     FM310600 04006KT P6SM SKC=



000
FTUS45 KABQ 301700
TAFABQ
TAF
KABQ 301721Z 3018/3118 02007KT P6SM SKC
     FM302100 11010KT P6SM SKC
     FM310500 09013G22KT P6SM FEW250=



000
FTUS45 KABQ 301700
TAFSAF
TAF
KSAF 301721Z 3018/3118 02010KT P6SM SKC
     FM310100 13011KT P6SM FEW250
     FM310600 16008KT P6SM FEW250=



000
FTUS45 KABQ 301100
TAFLVS
TAF
KLVS 301120Z 3012/3112 04008KT P6SM SKC
     FM301800 11010KT P6SM SKC
     FM302100 16010KT P6SM SKC
     FM310600 17008KT P6SM SCT250=



000
FTUS45 KABQ 301100
TAFTCC
TAF
KTCC 301120Z 3012/3112 32010KT P6SM SKC
     FM301300 36008KT P6SM SKC
     FM301600 04013KT P6SM SKC
     FM302100 07010KT P6SM SKC
     FM310600 04005KT P6SM SKC=



000
FTUS45 KABQ 301100
TAFROW
TAF
KROW 301120Z 3012/3112 35007KT P6SM SKC
     FM301600 36012KT P6SM SKC
      TEMPO 3017/3020 01014G22KT
     FM302300 03008KT P6SM SKC
     FM310300 36006KT P6SM SKC=



000
FTUS45 KABQ 301100
TAFSAF
TAF
KSAF 301120Z 3012/3112 36011KT P6SM SKC
      TEMPO 3013/3016 36014G23KT
     FM301800 18010KT P6SM SKC
     FM310100 13011KT P6SM FEW250=



000
FTUS45 KABQ 301100
TAFABQ
TAF
KABQ 301120Z 3012/3112 02007KT P6SM SKC
     FM302100 11010KT P6SM SKC
     FM310400 09011G19KT P6SM FEW250=



000
FTUS45 KABQ 301100
TAFFMN
TAF
KFMN 301120Z 3012/3112 09007KT P6SM SKC
     FM302000 26008KT P6SM SKC
     FM310600 09009KT P6SM SCT250=



000
FTUS45 KABQ 301100
TAFGUP
TAF
KGUP 301120Z 3012/3112 VRB03KT P6SM SKC=



000
FTUS45 KABQ 300500
TAFROW
TAF
KROW 300520Z 3006/3106 VRB05KT P6SM SKC
     FM301500 36012KT P6SM SKC
     FM302100 03008KT P6SM SKC=



000
FTUS45 KABQ 300500
TAFFMN
TAF
KFMN 300520Z 3006/3106 VRB05KT P6SM SKC
      TEMPO 3021/3024 26008KT=



000
FTUS45 KABQ 300500
TAFLVS
TAF
KLVS 300520Z 3006/3106 01008KT P6SM SKC
     FM301800 10010KT P6SM SKC
     FM302100 14010KT P6SM SKC=



000
FTUS45 KABQ 300500
TAFTCC
TAF
KTCC 300520Z 3006/3106 26010KT P6SM SKC
     FM301000 36008KT P6SM SKC
     FM301500 04013KT P6SM SKC
     FM302000 07010KT P6SM SKC=



000
FTUS45 KABQ 300500
TAFABQ
TAF
KABQ 300520Z 3006/3106 VRB05KT P6SM SKC
     FM302300 11010KT P6SM SKC=



000
FTUS45 KABQ 300500
TAFGUP
TAF
KGUP 300520Z 3006/3106 VRB03KT P6SM SKC=



000
FTUS45 KABQ 300500
TAFSAF
TAF
KSAF 300520Z 3006/3106 36005KT P6SM SKC
     FM301200 36013KT P6SM SKC
     FM301800 16010KT P6SM SKC
      TEMPO 3020/3023 19011KT=



000
FTUS45 KABQ 292300
TAFTCC
TAF
KTCC 292321Z 3000/3024 23010KT P6SM SKC
     FM300400 26008KT P6SM SKC
     FM300900 36008KT P6SM SKC
     FM301400 04013KT P6SM SKC
     FM302100 07010KT P6SM SKC=



000
FTUS45 KABQ 292300
TAFROW
TAF
KROW 292321Z 3000/3024 16010KT P6SM SKC
     FM300200 VRB05KT P6SM SKC
     FM301500 36012KT P6SM SKC=



000
FTUS45 KABQ 292300
TAFSAF
TAF
KSAF 292321Z 3000/3024 36005KT P6SM SKC
     FM301200 36012KT P6SM SKC
     FM301800 16010KT P6SM SKC=



000
FTUS45 KABQ 292300
TAFFMN
TAF
KFMN 292321Z 3000/3024 28011KT P6SM SKC
     FM300100 VRB05KT P6SM SKC
     FM302000 26010KT P6SM SKC=



000
FTUS45 KABQ 292300
TAFABQ
TAF
KABQ 292321Z 3000/3024 02005KT P6SM SKC
     FM302000 15007KT P6SM SKC=



000
FTUS45 KABQ 292300
TAFLVS
TAF
KLVS 292321Z 3000/3024 19010KT P6SM SKC
     FM300200 01008KT P6SM SKC
     FM301800 10010KT P6SM SKC
     FM302100 13011KT P6SM SKC=



000
FTUS45 KABQ 292300
TAFGUP
TAF
KGUP 292321Z 3000/3024 VRB03KT P6SM SKC=



000
FTUS45 KABQ 291700
TAFLVS
TAF
KLVS 291737Z 2918/3018 VRB05KT P6SM SKC
     FM291930 22010KT P6SM SKC
      TEMPO 2920/2923 22014G23KT
     FM300100 01006KT P6SM SKC=



000
FTUS45 KABQ 291700
TAFABQ
TAF
KABQ 291737Z 2918/3018 32007KT P6SM SKC
     FM300100 02005KT P6SM SKC=



000
FTUS45 KABQ 291700
TAFROW
TAF
KROW 291737Z 2918/3018 16010KT P6SM SKC
     FM300200 VRB05KT P6SM SKC
     FM301600 36012KT P6SM SKC=



000
FTUS45 KABQ 291700
TAFSAF
TAF
KSAF 291737Z 2918/3018 01010KT P6SM SKC
     FM291930 VRB05KT P6SM SKC
     FM301200 36011KT P6SM SKC=



000
FTUS45 KABQ 291700
TAFGUP
TAF
KGUP 291737Z 2918/3018 VRB04KT P6SM SKC
      TEMPO 2920/2924 27008KT=



000
FTUS45 KABQ 291700
TAFFMN
TAF
KFMN 291737Z 2918/3018 12005KT P6SM SKC
     FM292000 28011KT P6SM SKC
     FM300100 VRB05KT P6SM SKC=



000
FTUS45 KABQ 291700
TAFTCC
TAF
KTCC 291737Z 2918/3018 27006KT P6SM SKC
     FM291930 21012KT P6SM SKC
     FM300400 26008KT P6SM SKC
     FM300900 36008KT P6SM SKC
     FM301400 04014KT P6SM SKC=



000
FTUS45 KABQ 291100
TAFROW
TAF
KROW 291127Z 2912/3012 VRB05KT P6SM SKC
     FM291700 16008KT P6SM SKC
     FM300300 VRB05KT P6SM SKC=



000
FTUS45 KABQ 291100
TAFSAF
TAF
KSAF 291127Z 2912/3012 01011KT P6SM SKC
      TEMPO 2914/2916 01012G20KT
     FM291800 28009KT P6SM SKC
     FM300100 35007KT P6SM SKC=



000
FTUS45 KABQ 291100
TAFLVS
TAF
KLVS 291127Z 2912/3012 VRB05KT P6SM SKC
     FM291800 22010KT P6SM SKC
      TEMPO 2920/2923 22014G23KT
     FM300100 35006KT P6SM SKC=



000
FTUS45 KABQ 291100
TAFGUP
TAF
KGUP 291127Z 2912/3012 VRB04KT P6SM SKC
      TEMPO 2919/2923 27008KT=



000
FTUS45 KABQ 291100
TAFTCC
TAF
KTCC 291127Z 2912/3012 VRB05KT P6SM SKC
     FM291700 21010KT P6SM SKC
     FM300600 26008KT P6SM SKC=



000
FTUS45 KABQ 291100
TAFABQ
TAF
KABQ 291127Z 2912/3012 35008KT P6SM SKC
     FM291500 VRB04KT P6SM SKC=



000
FTUS45 KABQ 291100
TAFFMN
TAF
KFMN 291127Z 2912/3012 08005KT P6SM SKC
     FM291900 28010KT P6SM SKC
     FM300100 VRB05KT P6SM SKC=



000
FTUS45 KABQ 290500
TAFGUP
TAF
KGUP 290525Z 2906/3006 00000KT P6SM SKC
     FM292000 28007KT P6SM SKC
     FM300100 00000KT P6SM SKC=



000
FTUS45 KABQ 290500
TAFLVS
TAF
KLVS 290525Z 2906/3006 VRB05KT P6SM SKC
     FM291800 22013KT P6SM SKC
     FM300100 34006KT P6SM SKC=



000
FTUS45 KABQ 290500
TAFSAF
TAF
KSAF 290525Z 2906/3006 01006KT P6SM SKC
     FM292100 26008KT P6SM SKC
     FM300100 35005KT P6SM SKC=



000
FTUS45 KABQ 290500
TAFABQ
TAF
KABQ 290525Z 2906/3006 VRB04KT P6SM SKC=



000
FTUS45 KABQ 290500
TAFROW
TAF
KROW 290525Z 2906/3006 35005KT P6SM SKC
     FM291700 15008KT P6SM SKC=



000
FTUS45 KABQ 290500
TAFTCC
TAF
KTCC 290525Z 2906/3006 VRB05KT P6SM SKC
     FM291800 21010KT P6SM SKC
     FM300100 26006KT P6SM SKC=



000
FTUS45 KABQ 290500
TAFFMN
TAF
KFMN 290525Z 2906/3006 08005KT P6SM SKC
     FM291900 28010KT P6SM SKC
     FM300100 31005KT P6SM SKC=



000
FTUS45 KABQ 282300
TAFFMN
TAF
KFMN 282328Z 2900/2924 28010KT P6SM SKC
     FM290200 08005KT P6SM SKC
     FM291900 28010KT P6SM SKC=



000
FTUS45 KABQ 282300
TAFTCC
TAF
KTCC 282328Z 2900/2924 18005KT P6SM SKC
     FM291800 21010KT P6SM SKC=



000
FTUS45 KABQ 282300
TAFROW
TAF
KROW 282328Z 2900/2924 15005KT P6SM SKC=



000
FTUS45 KABQ 282300
TAFGUP
TAF
KGUP 282328Z 2900/2924 00000KT P6SM SKC
     FM291900 28006KT P6SM SKC=



000
FTUS45 KABQ 282300
TAFSAF
TAF
KSAF 282328Z 2900/2924 01006KT P6SM SKC
     FM292100 26008KT P6SM SKC=



000
FTUS45 KABQ 282300
TAFABQ
TAF
KABQ 282328Z 2900/2924 VRB04KT P6SM SKC=



000
FTUS45 KABQ 282300
TAFLVS
TAF
KLVS 282328Z 2900/2924 15012G20KT P6SM SKC
     FM290100 VRB05KT P6SM SKC
     FM291800 21011KT P6SM SKC=



000
FTUS45 KABQ 281700
TAFTCC
TAF
KTCC 281727Z 2818/2918 VRB05KT P6SM BKN200
     FM290100 VRB05KT P6SM SKC=



000
FTUS45 KABQ 281700
TAFABQ
TAF
KABQ 281727Z 2818/2918 VRB05KT P6SM BKN200
     FM290100 VRB03KT P6SM SKC=



000
FTUS45 KABQ 281700
TAFFMN
TAF
KFMN 281727Z 2818/2918 28010KT P6SM SKC
     FM290130 VRB05KT P6SM SKC=



000
FTUS45 KABQ 281700
TAFGUP
TAF
KGUP 281727Z 2818/2918 26007KT P6SM SCT200
     FM290130 VRB03KT P6SM SKC=



000
FTUS45 KABQ 281700
TAFLVS
TAF
KLVS 281727Z 2818/2918 19012G21KT P6SM SCT200
     FM290100 VRB05KT P6SM SKC=



000
FTUS45 KABQ 281700
TAFSAF
TAF
KSAF 281727Z 2818/2918 25007KT P6SM BKN200
     FM290100 01006KT P6SM SKC=



000
FTUS45 KABQ 281700
TAFROW
TAF
KROW 281727Z 2818/2918 VRB05KT P6SM SKC=



    US Dept of Commerce
    National Oceanic and Atmospheric Administration
    National Weather Service
    1325 East West Highway
    Silver Spring, MD 20910
    Page Author: NWS Internet Services Team
Disclaimer
Information Quality
Credits
Glossary
Privacy Policy
Freedom of Information Act (FOIA)
About Us
Career Opportunities